sensor_id;sensor_type;location;lat;lon;timestamp;pressure;altitude;pressure_sealevel;temperature;humidity
23241;BME280;11789;53.482;9.862;2022-08-01T00:00:09;101302.13;;;17.94;100.00
23241;BME280;11789;53.482;9.862;2022-08-01T00:02:36;101304.72;;;17.95;100.00
23241;BME280;11789;53.482;9.862;2022-08-01T00:05:03;101302.97;;;17.96;100.00
23241;BME280;11789;53.482;9.862;2022-08-01T00:07:31;101299.41;;;17.98;100.00
23241;BME280;11789;53.482;9.862;2022-08-01T00:09:57;101305.47;;;17.99;100.00
23241;BME280;11789;53.482;9.862;2022-08-01T00:12:22;101311.56;;;17.99;100.00
23241;BME280;11789;53.482;9.862;2022-08-01T00:14:48;101306.34;;;17.99;100.00
23241;BME280;11789;53.482;9.862;2022-08-01T00:17:13;101305.47;;;18.00;100.00
23241;BME280;11789;53.482;9.862;2022-08-01T00:19:39;101307.22;;;18.00;100.00
23241;BME280;11789;53.482;9.862;2022-08-01T00:22:04;101302.06;;;17.97;100.00
23241;BME280;11789;53.482;9.862;2022-08-01T00:24:30;101304.72;;;17.95;100.00
23241;BME280;11789;53.482;9.862;2022-08-01T00:26:55;101300.41;;;17.93;100.00
23241;BME280;11789;53.482;9.862;2022-08-01T00:29:20;101304.75;;;17.94;100.00
23241;BME280;11789;53.482;9.862;2022-08-01T00:31:46;101299.50;;;17.94;100.00
23241;BME280;11789;53.482;9.862;2022-08-01T00:34:11;101300.41;;;17.93;100.00
23241;BME280;11789;53.482;9.862;2022-08-01T00:36:37;101298.69;;;17.92;100.00
23241;BME280;11789;53.482;9.862;2022-08-01T00:39:02;101309.16;;;17.92;100.00
23241;BME280;11789;53.482;9.862;2022-08-01T00:41:28;101297.78;;;17.93;100.00
23241;BME280;11789;53.482;9.862;2022-08-01T00:43:53;101302.97;;;17.94;100.00
23241;BME280;11789;53.482;9.862;2022-08-01T00:46:19;101303.03;;;17.93;100.00
23241;BME280;11789;53.482;9.862;2022-08-01T00:48:45;101304.78;;;17.92;100.00
23241;BME280;11789;53.482;9.862;2022-08-01T00:51:10;101300.50;;;17.89;100.00
23241;BME280;11789;53.482;9.862;2022-08-01T00:53:36;101301.37;;;17.88;100.00
23241;BME280;11789;53.482;9.862;2022-08-01T00:56:02;101298.75;;;17.88;100.00
23241;BME280;11789;53.482;9.862;2022-08-01T00:58:28;101307.59;;;17.84;100.00
23241;BME280;11789;53.482;9.862;2022-08-01T01:00:56;101306.72;;;17.84;100.00
23241;BME280;11789;53.482;9.862;2022-08-01T01:03:23;101299.75;;;17.84;100.00
23241;BME280;11789;53.482;9.862;2022-08-01T01:05:59;101298.00;;;17.83;100.00
23241;BME280;11789;53.482;9.862;2022-08-01T01:08:41;101304.13;;;17.82;100.00
23241;BME280;11789;53.482;9.862;2022-08-01T01:11:19;101306.75;;;17.82;100.00
23241;BME280;11789;53.482;9.862;2022-08-01T01:13:53;101306.81;;;17.81;100.00
23241;BME280;11789;53.482;9.862;2022-08-01T01:16:21;101308.56;;;17.80;100.00
23241;BME280;11789;53.482;9.862;2022-08-01T01:18:56;101310.34;;;17.78;100.00
23241;BME280;11789;53.482;9.862;2022-08-01T01:29:31;101306.94;;;17.75;100.00
23241;BME280;11789;53.482;9.862;2022-08-01T01:32:09;101309.59;;;17.73;100.00
23241;BME280;11789;53.482;9.862;2022-08-01T01:34:38;101313.03;;;17.75;100.00
23241;BME280;11789;53.482;9.862;2022-08-01T01:37:10;101314.81;;;17.75;100.00
23241;BME280;11789;53.482;9.862;2022-08-01T01:39:40;101310.44;;;17.75;100.00
23241;BME280;11789;53.482;9.862;2022-08-01T01:42:07;101313.94;;;17.74;100.00
23241;BME280;11789;53.482;9.862;2022-08-01T01:44:34;101311.31;;;17.74;100.00
23241;BME280;11789;53.482;9.862;2022-08-01T01:47:02;101318.28;;;17.74;100.00
23241;BME280;11789;53.482;9.862;2022-08-01T01:49:29;101319.16;;;17.74;100.00
23241;BME280;11789;53.482;9.862;2022-08-01T01:51:57;101320.03;;;17.73;100.00
23241;BME280;11789;53.482;9.862;2022-08-01T01:54:28;101321.78;;;17.74;100.00
23241;BME280;11789;53.482;9.862;2022-08-01T01:56:58;101325.31;;;17.70;100.00
23241;BME280;11789;53.482;9.862;2022-08-01T01:59:27;101321.87;;;17.68;100.00
23241;BME280;11789;53.482;9.862;2022-08-01T02:01:58;101328.00;;;17.67;100.00
23241;BME280;11789;53.482;9.862;2022-08-01T02:04:26;101328.91;;;17.66;100.00
23241;BME280;11789;53.482;9.862;2022-08-01T02:06:53;101327.19;;;17.65;100.00
23241;BME280;11789;53.482;9.862;2022-08-01T02:09:20;101328.91;;;17.66;100.00
23241;BME280;11789;53.482;9.862;2022-08-01T02:11:48;101331.56;;;17.64;100.00
23241;BME280;11789;53.482;9.862;2022-08-01T02:14:17;101333.22;;;17.67;100.00
23241;BME280;11789;53.482;9.862;2022-08-01T02:16:45;101332.44;;;17.63;100.00
23241;BME280;11789;53.482;9.862;2022-08-01T02:19:12;101331.63;;;17.61;100.00
23241;BME280;11789;53.482;9.862;2022-08-01T02:21:41;101339.50;;;17.60;100.00
23241;BME280;11789;53.482;9.862;2022-08-01T02:24:17;101336.91;;;17.58;100.00
23241;BME280;11789;53.482;9.862;2022-08-01T02:26:47;101333.47;;;17.56;100.00
23241;BME280;11789;53.482;9.862;2022-08-01T02:29:19;101337.84;;;17.56;100.00
23241;BME280;11789;53.482;9.862;2022-08-01T02:31:48;101333.53;;;17.55;100.00
23241;BME280;11789;53.482;9.862;2022-08-01T02:34:17;101328.28;;;17.55;100.00
23241;BME280;11789;53.482;9.862;2022-08-01T02:36:45;101326.56;;;17.54;100.00
23241;BME280;11789;53.482;9.862;2022-08-01T02:39:16;101325.72;;;17.52;100.00
23241;BME280;11789;53.482;9.862;2022-08-01T02:41:48;101332.72;;;17.51;100.00
23241;BME280;11789;53.482;9.862;2022-08-01T02:44:23;101325.72;;;17.52;100.00
23241;BME280;11789;53.482;9.862;2022-08-01T02:46:53;101328.34;;;17.52;100.00
23241;BME280;11789;53.482;9.862;2022-08-01T02:49:22;101334.41;;;17.54;100.00
23241;BME280;11789;53.482;9.862;2022-08-01T02:51:50;101330.06;;;17.53;100.00
23241;BME280;11789;53.482;9.862;2022-08-01T02:54:18;101330.16;;;17.50;100.00
23241;BME280;11789;53.482;9.862;2022-08-01T02:56:47;101339.75;;;17.49;100.00
23241;BME280;11789;53.482;9.862;2022-08-01T02:59:17;101334.53;;;17.48;100.00
23241;BME280;11789;53.482;9.862;2022-08-01T03:01:44;101342.34;;;17.49;100.00
23241;BME280;11789;53.482;9.862;2022-08-01T03:04:11;101337.19;;;17.46;100.00
23241;BME280;11789;53.482;9.862;2022-08-01T03:06:38;101345.87;;;17.47;100.00
23241;BME280;11789;53.482;9.862;2022-08-01T03:09:06;101348.44;;;17.48;100.00
23241;BME280;11789;53.482;9.862;2022-08-01T03:11:32;101352.81;;;17.48;100.00
23241;BME280;11789;53.482;9.862;2022-08-01T03:14:05;101351.97;;;17.49;100.00
23241;BME280;11789;53.482;9.862;2022-08-01T03:16:33;101347.62;;;17.46;100.00
23241;BME280;11789;53.482;9.862;2022-08-01T03:19:01;101345.94;;;17.45;100.00
23241;BME280;11789;53.482;9.862;2022-08-01T03:21:28;101349.41;;;17.46;100.00
23241;BME280;11789;53.482;9.862;2022-08-01T03:23:57;101347.59;;;17.48;100.00
23241;BME280;11789;53.482;9.862;2022-08-01T03:26:28;101352.81;;;17.48;100.00
23241;BME280;11789;53.482;9.862;2022-08-01T03:29:03;101351.97;;;17.49;100.00
23241;BME280;11789;53.482;9.862;2022-08-01T03:31:35;101355.44;;;17.48;100.00
23241;BME280;11789;53.482;9.862;2022-08-01T03:34:02;101354.63;;;17.46;100.00
23241;BME280;11789;53.482;9.862;2022-08-01T03:36:28;101361.56;;;17.47;100.00
23241;BME280;11789;53.482;9.862;2022-08-01T03:38:57;101353.78;;;17.45;100.00
23241;BME280;11789;53.482;9.862;2022-08-01T03:41:27;101352.91;;;17.45;100.00
23241;BME280;11789;53.482;9.862;2022-08-01T03:44:02;101364.28;;;17.44;100.00
23241;BME280;11789;53.482;9.862;2022-08-01T03:46:54;101355.53;;;17.45;100.00
23241;BME280;11789;53.482;9.862;2022-08-01T03:49:21;101362.50;;;17.44;100.00
23241;BME280;11789;53.482;9.862;2022-08-01T03:51:49;101368.59;;;17.45;100.00
23241;BME280;11789;53.482;9.862;2022-08-01T03:54:21;101367.69;;;17.46;100.00
23241;BME280;11789;53.482;9.862;2022-08-01T03:56:49;101371.12;;;17.48;100.00
23241;BME280;11789;53.482;9.862;2022-08-01T03:59:17;101377.25;;;17.47;100.00
23241;BME280;11789;53.482;9.862;2022-08-01T04:01:45;101378.19;;;17.43;100.00
23241;BME280;11789;53.482;9.862;2022-08-01T04:04:12;101375.69;;;17.40;100.00
23241;BME280;11789;53.482;9.862;2022-08-01T04:06:39;101373.94;;;17.38;100.00
23241;BME280;11789;53.482;9.862;2022-08-01T04:09:06;101387.91;;;17.37;100.00
23241;BME280;11789;53.482;9.862;2022-08-01T04:11:32;101380.09;;;17.36;100.00
23241;BME280;11789;53.482;9.862;2022-08-01T04:13:58;101384.47;;;17.35;100.00
23241;BME280;11789;53.482;9.862;2022-08-01T04:16:23;101387.06;;;17.35;100.00
23241;BME280;11789;53.482;9.862;2022-08-01T04:18:49;101387.13;;;17.34;100.00
23241;BME280;11789;53.482;9.862;2022-08-01T04:21:17;101396.72;;;17.32;100.00
23241;BME280;11789;53.482;9.862;2022-08-01T04:23:44;101387.13;;;17.32;100.00
23241;BME280;11789;53.482;9.862;2022-08-01T04:26:12;101393.25;;;17.31;100.00
23241;BME280;11789;53.482;9.862;2022-08-01T04:28:41;101387.22;;;17.29;100.00
23241;BME280;11789;53.482;9.862;2022-08-01T04:31:09;101397.62;;;17.31;100.00
23241;BME280;11789;53.482;9.862;2022-08-01T04:33:38;101395.00;;;17.31;100.00
23241;BME280;11789;53.482;9.862;2022-08-01T04:36:06;101407.19;;;17.32;100.00
23241;BME280;11789;53.482;9.862;2022-08-01T04:38:35;101414.97;;;17.33;100.00
23241;BME280;11789;53.482;9.862;2022-08-01T04:41:02;101413.25;;;17.32;100.00
23241;BME280;11789;53.482;9.862;2022-08-01T04:43:28;101411.59;;;17.28;100.00
23241;BME280;11789;53.482;9.862;2022-08-01T04:45:54;101416.81;;;17.28;100.00
23241;BME280;11789;53.482;9.862;2022-08-01T04:48:21;101416.81;;;17.28;100.00
23241;BME280;11789;53.482;9.862;2022-08-01T04:50:49;101420.31;;;17.29;100.00
23241;BME280;11789;53.482;9.862;2022-08-01T04:53:16;101422.94;;;17.29;100.00
23241;BME280;11789;53.482;9.862;2022-08-01T04:55:46;101427.28;;;17.28;100.00
23241;BME280;11789;53.482;9.862;2022-08-01T04:58:12;101428.22;;;17.26;100.00
23241;BME280;11789;53.482;9.862;2022-08-01T05:00:38;101415.97;;;17.28;100.00
23241;BME280;11789;53.482;9.862;2022-08-01T05:03:04;101423.81;;;17.28;100.00
23241;BME280;11789;53.482;9.862;2022-08-01T05:05:29;101421.19;;;17.29;100.00
23241;BME280;11789;53.482;9.862;2022-08-01T05:07:55;101434.28;;;17.26;100.00
23241;BME280;11789;53.482;9.862;2022-08-01T05:10:21;101418.66;;;17.23;100.00
23241;BME280;11789;53.482;9.862;2022-08-01T05:12:47;101426.53;;;17.22;100.00
23241;BME280;11789;53.482;9.862;2022-08-01T05:15:12;101432.66;;;17.21;100.00
23241;BME280;11789;53.482;9.862;2022-08-01T05:17:37;101433.53;;;17.21;100.00
23241;BME280;11789;53.482;9.862;2022-08-01T05:20:03;101437.06;;;17.19;100.00
23241;BME280;11789;53.482;9.862;2022-08-01T05:22:31;101430.94;;;17.18;100.00
23241;BME280;11789;53.482;9.862;2022-08-01T05:24:57;101446.63;;;17.18;100.00
23241;BME280;11789;53.482;9.862;2022-08-01T05:27:25;101447.53;;;17.17;100.00
23241;BME280;11789;53.482;9.862;2022-08-01T05:29:51;101449.28;;;17.17;100.00
23241;BME280;11789;53.482;9.862;2022-08-01T05:32:17;101453.66;;;17.16;100.00
23241;BME280;11789;53.482;9.862;2022-08-01T05:34:42;101451.84;;;17.18;100.00
23241;BME280;11789;53.482;9.862;2022-08-01T05:37:08;101464.06;;;17.19;100.00
23241;BME280;11789;53.482;9.862;2022-08-01T05:39:34;101455.38;;;17.17;100.00
23241;BME280;11789;53.482;9.862;2022-08-01T05:41:59;101457.06;;;17.20;100.00
23241;BME280;11789;53.482;9.862;2022-08-01T05:44:24;101457.09;;;17.18;100.00
23241;BME280;11789;53.482;9.862;2022-08-01T05:46:50;101454.47;;;17.18;100.00
23241;BME280;11789;53.482;9.862;2022-08-01T05:49:16;101463.22;;;17.17;100.00
23241;BME280;11789;53.482;9.862;2022-08-01T05:51:41;101464.94;;;17.18;100.00
23241;BME280;11789;53.482;9.862;2022-08-01T05:54:07;101471.03;;;17.17;100.00
23241;BME280;11789;53.482;9.862;2022-08-01T05:56:32;101470.22;;;17.15;100.00
23241;BME280;11789;53.482;9.862;2022-08-01T05:58:58;101480.59;;;17.18;100.00
23241;BME280;11789;53.482;9.862;2022-08-01T06:01:23;101472.75;;;17.20;100.00
23241;BME280;11789;53.482;9.862;2022-08-01T06:03:49;101470.16;;;17.20;100.00
23241;BME280;11789;53.482;9.862;2022-08-01T06:06:14;101472.75;;;17.20;100.00
23241;BME280;11789;53.482;9.862;2022-08-01T06:08:40;101472.72;;;17.21;100.00
23241;BME280;11789;53.482;9.862;2022-08-01T06:11:06;101490.97;;;17.23;100.00
23241;BME280;11789;53.482;9.862;2022-08-01T06:13:32;101476.19;;;17.22;100.00
23241;BME280;11789;53.482;9.862;2022-08-01T06:15:57;101477.91;;;17.23;100.00
23241;BME280;11789;53.482;9.862;2022-08-01T06:18:23;101482.28;;;17.24;100.00
23241;BME280;11789;53.482;9.862;2022-08-01T06:20:49;101486.59;;;17.23;100.00
23241;BME280;11789;53.482;9.862;2022-08-01T06:23:14;101485.78;;;17.21;100.00
23241;BME280;11789;53.482;9.862;2022-08-01T06:25:42;101484.06;;;17.20;100.00
23241;BME280;11789;53.482;9.862;2022-08-01T06:28:08;101490.16;;;17.21;100.00
23241;BME280;11789;53.482;9.862;2022-08-01T06:30:33;101498.00;;;17.21;100.00
23241;BME280;11789;53.482;9.862;2022-08-01T06:32:59;101498.84;;;17.21;100.00
23241;BME280;11789;53.482;9.862;2022-08-01T06:35:26;101498.88;;;17.20;100.00
23241;BME280;11789;53.482;9.862;2022-08-01T06:37:51;101501.53;;;17.17;100.00
23241;BME280;11789;53.482;9.862;2022-08-01T06:40:17;101506.75;;;17.17;100.00
23241;BME280;11789;53.482;9.862;2022-08-01T06:42:43;101509.47;;;17.12;100.00
23241;BME280;11789;53.482;9.862;2022-08-01T06:45:11;101517.28;;;17.12;100.00
23241;BME280;11789;53.482;9.862;2022-08-01T06:47:38;101511.25;;;17.10;100.00
23241;BME280;11789;53.482;9.862;2022-08-01T06:50:05;101515.53;;;17.12;100.00
23241;BME280;11789;53.482;9.862;2022-08-01T06:52:31;101516.41;;;17.15;100.00
23241;BME280;11789;53.482;9.862;2022-08-01T06:54:56;101521.63;;;17.15;100.00
23241;BME280;11789;53.482;9.862;2022-08-01T06:57:22;101525.09;;;17.15;100.00
23241;BME280;11789;53.482;9.862;2022-08-01T06:59:47;101530.31;;;17.15;100.00
23241;BME280;11789;53.482;9.862;2022-08-01T07:02:13;101533.81;;;17.14;100.00
23241;BME280;11789;53.482;9.862;2022-08-01T07:04:39;101530.34;;;17.14;100.00
23241;BME280;11789;53.482;9.862;2022-08-01T07:07:04;101532.06;;;17.13;100.00
23241;BME280;11789;53.482;9.862;2022-08-01T07:09:30;101537.38;;;17.10;100.00
23241;BME280;11789;53.482;9.862;2022-08-01T07:11:55;101538.28;;;17.07;100.00
23241;BME280;11789;53.482;9.862;2022-08-01T07:14:22;101545.28;;;17.05;100.00
23241;BME280;11789;53.482;9.862;2022-08-01T07:16:48;101543.69;;;16.98;100.00
23241;BME280;11789;53.482;9.862;2022-08-01T07:19:14;101543.72;;;16.95;100.00
23241;BME280;11789;53.482;9.862;2022-08-01T07:21:40;101545.53;;;16.90;100.00
23241;BME280;11789;53.482;9.862;2022-08-01T07:24:06;101542.06;;;16.90;100.00
23241;BME280;11789;53.482;9.862;2022-08-01T07:26:32;101550.78;;;16.89;100.00
23241;BME280;11789;53.482;9.862;2022-08-01T07:28:58;101544.72;;;16.88;100.00
23241;BME280;11789;53.482;9.862;2022-08-01T07:31:23;101549.94;;;16.86;100.00
23241;BME280;11789;53.482;9.862;2022-08-01T07:33:50;101563.91;;;16.84;100.00
23241;BME280;11789;53.482;9.862;2022-08-01T07:36:16;101568.28;;;16.83;100.00
23241;BME280;11789;53.482;9.862;2022-08-01T07:38:41;101576.13;;;16.82;100.00
23241;BME280;11789;53.482;9.862;2022-08-01T07:41:07;101577.91;;;16.80;100.00
23241;BME280;11789;53.482;9.862;2022-08-01T07:43:32;101573.56;;;16.79;100.00
23241;BME280;11789;53.482;9.862;2022-08-01T07:45:58;101576.16;;;16.80;100.00
23241;BME280;11789;53.482;9.862;2022-08-01T07:48:23;101582.19;;;16.84;100.00
23241;BME280;11789;53.482;9.862;2022-08-01T07:50:52;101582.13;;;16.87;100.00
23241;BME280;11789;53.482;9.862;2022-08-01T07:53:18;101586.50;;;16.86;100.00
23241;BME280;11789;53.482;9.862;2022-08-01T07:55:43;101588.16;;;16.94;100.00
23241;BME280;11789;53.482;9.862;2022-08-01T07:58:09;101602.94;;;16.95;100.00
23241;BME280;11789;53.482;9.862;2022-08-01T08:00:34;101606.37;;;16.98;100.00
23241;BME280;11789;53.482;9.862;2022-08-01T08:03:00;101609.81;;;17.00;100.00
23241;BME280;11789;53.482;9.862;2022-08-01T08:05:26;101608.06;;;17.01;100.00
23241;BME280;11789;53.482;9.862;2022-08-01T08:07:52;101614.09;;;17.03;100.00
23241;BME280;11789;53.482;9.862;2022-08-01T08:10:17;101614.97;;;17.05;100.00
23241;BME280;11789;53.482;9.862;2022-08-01T08:12:43;101623.63;;;17.07;100.00
23241;BME280;11789;53.482;9.862;2022-08-01T08:15:09;101616.63;;;17.10;100.00
23241;BME280;11789;53.482;9.862;2022-08-01T08:17:34;101607.00;;;17.14;96.88
23241;BME280;11789;53.482;9.862;2022-08-01T08:20:02;101602.63;;;17.15;91.03
23241;BME280;11789;53.482;9.862;2022-08-01T08:22:28;101607.81;;;17.16;89.34
23241;BME280;11789;53.482;9.862;2022-08-01T08:24:53;101612.94;;;17.24;89.00
23241;BME280;11789;53.482;9.862;2022-08-01T08:27:18;101615.41;;;17.31;87.05
23241;BME280;11789;53.482;9.862;2022-08-01T08:29:44;101620.63;;;17.31;82.67
23241;BME280;11789;53.482;9.862;2022-08-01T08:32:09;101623.16;;;17.36;81.26
23241;BME280;11789;53.482;9.862;2022-08-01T08:34:35;101627.47;;;17.40;83.68
23241;BME280;11789;53.482;9.862;2022-08-01T08:37:00;101622.09;;;17.48;85.43
23241;BME280;11789;53.482;9.862;2022-08-01T08:39:26;101628.16;;;17.48;85.69
23241;BME280;11789;53.482;9.862;2022-08-01T08:41:52;101629.84;;;17.54;87.14
23241;BME280;11789;53.482;9.862;2022-08-01T08:44:18;101634.09;;;17.58;87.80
23241;BME280;11789;53.482;9.862;2022-08-01T08:46:47;101624.28;;;17.72;88.27
23241;BME280;11789;53.482;9.862;2022-08-01T08:49:17;101631.13;;;17.81;88.60
23241;BME280;11789;53.482;9.862;2022-08-01T08:51:47;101639.91;;;17.77;89.08
23241;BME280;11789;53.482;9.862;2022-08-01T08:54:14;101640.84;;;17.71;89.37
23241;BME280;11789;53.482;9.862;2022-08-01T08:56:40;101645.44;;;17.58;87.44
23241;BME280;11789;53.482;9.862;2022-08-01T08:59:07;101647.88;;;17.69;87.50
23241;BME280;11789;53.482;9.862;2022-08-01T09:01:33;101644.13;;;17.85;85.71
23241;BME280;11789;53.482;9.862;2022-08-01T09:04:01;101643.06;;;17.94;85.30
23241;BME280;11789;53.482;9.862;2022-08-01T09:06:27;101652.78;;;17.87;86.25
23241;BME280;11789;53.482;9.862;2022-08-01T09:08:55;101649.28;;;17.88;83.14
23241;BME280;11789;53.482;9.862;2022-08-01T09:11:21;101658.50;;;18.08;86.05
23241;BME280;11789;53.482;9.862;2022-08-01T09:14:07;101657.69;;;18.06;86.50
23241;BME280;11789;53.482;9.862;2022-08-01T09:16:34;101669.94;;;18.04;86.26
23241;BME280;11789;53.482;9.862;2022-08-01T09:19:26;101669.03;;;18.06;85.78
23241;BME280;11789;53.482;9.862;2022-08-01T09:22:01;101668.16;;;18.06;86.41
23241;BME280;11789;53.482;9.862;2022-08-01T09:24:29;101681.37;;;18.00;84.34
23241;BME280;11789;53.482;9.862;2022-08-01T09:26:55;101680.63;;;17.92;84.34
23241;BME280;11789;53.482;9.862;2022-08-01T09:29:30;101676.28;;;17.91;84.66
23241;BME280;11789;53.482;9.862;2022-08-01T09:31:56;101677.97;;;17.95;86.20
23241;BME280;11789;53.482;9.862;2022-08-01T09:34:28;101691.78;;;18.01;85.99
23241;BME280;11789;53.482;9.862;2022-08-01T09:36:57;101686.59;;;17.98;84.34
23241;BME280;11789;53.482;9.862;2022-08-01T09:39:28;101691.06;;;17.95;84.98
23241;BME280;11789;53.482;9.862;2022-08-01T09:41:56;101696.09;;;18.04;85.38
23241;BME280;11789;53.482;9.862;2022-08-01T09:47:02;101704.63;;;18.15;81.78
23241;BME280;11789;53.482;9.862;2022-08-01T09:49:33;101708.19;;;18.11;81.89
23241;BME280;11789;53.482;9.862;2022-08-01T09:52:10;101700.25;;;18.14;82.04
23241;BME280;11789;53.482;9.862;2022-08-01T09:54:36;101702.09;;;18.09;81.44
23241;BME280;11789;53.482;9.862;2022-08-01T09:57:28;101701.06;;;18.18;82.65
23241;BME280;11789;53.482;9.862;2022-08-01T09:59:56;101708.81;;;18.24;82.60
23241;BME280;11789;53.482;9.862;2022-08-01T10:02:36;101701.72;;;18.30;79.58
23241;BME280;11789;53.482;9.862;2022-08-01T10:05:04;101709.50;;;18.35;79.94
23241;BME280;11789;53.482;9.862;2022-08-01T10:07:31;101708.53;;;18.37;80.03
23241;BME280;11789;53.482;9.862;2022-08-01T10:10:09;101707.50;;;18.46;80.25
23241;BME280;11789;53.482;9.862;2022-08-01T10:12:35;101703.91;;;18.52;78.75
23241;BME280;11789;53.482;9.862;2022-08-01T10:15:01;101709.91;;;18.57;78.62
23241;BME280;11789;53.482;9.862;2022-08-01T10:17:27;101710.63;;;18.63;79.39
23241;BME280;11789;53.482;9.862;2022-08-01T10:19:54;101719.16;;;18.76;79.85
23241;BME280;11789;53.482;9.862;2022-08-01T10:22:23;101723.59;;;18.73;76.66
23241;BME280;11789;53.482;9.862;2022-08-01T10:24:50;101722.72;;;18.72;76.90
23241;BME280;11789;53.482;9.862;2022-08-01T10:27:19;101716.72;;;18.65;77.73
23241;BME280;11789;53.482;9.862;2022-08-01T10:30:01;101721.13;;;18.63;77.83
23241;BME280;11789;53.482;9.862;2022-08-01T10:32:31;101718.16;;;18.80;78.45
23241;BME280;11789;53.482;9.862;2022-08-01T10:34:59;101713.69;;;18.85;77.35
23241;BME280;11789;53.482;9.862;2022-08-01T10:37:25;101718.72;;;18.95;77.85
23241;BME280;11789;53.482;9.862;2022-08-01T10:39:52;101715.44;;;18.85;73.76
23241;BME280;11789;53.482;9.862;2022-08-01T10:42:18;101714.50;;;18.89;74.56
23241;BME280;11789;53.482;9.862;2022-08-01T10:44:45;101717.16;;;18.87;72.66
23241;BME280;11789;53.482;9.862;2022-08-01T10:47:14;101713.78;;;18.82;70.71
23241;BME280;11789;53.482;9.862;2022-08-01T10:49:47;101716.41;;;18.82;71.48
23241;BME280;11789;53.482;9.862;2022-08-01T10:52:17;101712.06;;;18.81;72.49
23241;BME280;11789;53.482;9.862;2022-08-01T10:54:43;101711.97;;;18.84;73.89
23241;BME280;11789;53.482;9.862;2022-08-01T10:57:09;101718.81;;;18.91;75.77
23241;BME280;11789;53.482;9.862;2022-08-01T10:59:36;101722.16;;;18.98;75.38
23241;BME280;11789;53.482;9.862;2022-08-01T11:02:25;101717.84;;;18.96;70.27
23241;BME280;11789;53.482;9.862;2022-08-01T11:05:04;101725.69;;;18.96;69.97
23241;BME280;11789;53.482;9.862;2022-08-01T11:07:52;101714.41;;;18.93;68.41
23241;BME280;11789;53.482;9.862;2022-08-01T11:10:24;101725.78;;;18.92;70.52
23241;BME280;11789;53.482;9.862;2022-08-01T11:12:51;101722.25;;;18.93;70.85
23241;BME280;11789;53.482;9.862;2022-08-01T11:15:19;101730.06;;;18.97;70.62
23241;BME280;11789;53.482;9.862;2022-08-01T11:17:53;101731.78;;;18.98;68.32
23241;BME280;11789;53.482;9.862;2022-08-01T11:20:26;101725.63;;;18.99;67.23
23241;BME280;11789;53.482;9.862;2022-08-01T11:25:27;101737.84;;;19.00;67.37
23241;BME280;11789;53.482;9.862;2022-08-01T11:30:46;101730.66;;;19.09;67.34
23241;BME280;11789;53.482;9.862;2022-08-01T11:33:14;101726.25;;;19.11;66.54
23241;BME280;11789;53.482;9.862;2022-08-01T11:38:47;101736.50;;;19.22;66.46
23241;BME280;11789;53.482;9.862;2022-08-01T11:43:55;101737.44;;;19.18;64.81
23241;BME280;11789;53.482;9.862;2022-08-01T11:52:29;101737.50;;;19.15;65.47
23241;BME280;11789;53.482;9.862;2022-08-01T11:55:15;101741.78;;;19.19;65.99
23241;BME280;11789;53.482;9.862;2022-08-01T11:57:40;101738.97;;;19.28;66.45
23241;BME280;11789;53.482;9.862;2022-08-01T12:00:18;101743.31;;;19.29;67.28
23241;BME280;11789;53.482;9.862;2022-08-01T12:02:48;101749.50;;;19.25;64.59
23241;BME280;11789;53.482;9.862;2022-08-01T12:05:21;101746.88;;;19.25;64.74
23241;BME280;11789;53.482;9.862;2022-08-01T12:07:50;101758.41;;;19.18;65.18
23241;BME280;11789;53.482;9.862;2022-08-01T12:10:17;101754.84;;;19.21;65.17
23241;BME280;11789;53.482;9.862;2022-08-01T12:12:59;101754.84;;;19.21;63.26
23241;BME280;11789;53.482;9.862;2022-08-01T12:15:29;101754.91;;;19.19;64.07
23241;BME280;11789;53.482;9.862;2022-08-01T12:17:57;101761.03;;;19.18;62.04
23241;BME280;11789;53.482;9.862;2022-08-01T12:20:23;101769.00;;;19.13;62.24
23241;BME280;11789;53.482;9.862;2022-08-01T12:22:53;101776.97;;;19.09;61.19
23241;BME280;11789;53.482;9.862;2022-08-01T12:25:19;101769.91;;;19.12;61.47
23241;BME280;11789;53.482;9.862;2022-08-01T12:27:46;101771.66;;;19.12;61.50
23241;BME280;11789;53.482;9.862;2022-08-01T12:30:17;101777.66;;;19.17;63.01
23241;BME280;11789;53.482;9.862;2022-08-01T12:32:45;101769.75;;;19.18;61.81
23241;BME280;11789;53.482;9.862;2022-08-01T12:35:17;101781.22;;;19.14;61.34
23241;BME280;11789;53.482;9.862;2022-08-01T12:37:47;101772.53;;;19.11;61.44
23241;BME280;11789;53.482;9.862;2022-08-01T12:42:45;101775.16;;;19.11;62.70
23241;BME280;11789;53.482;9.862;2022-08-01T12:45:15;101772.63;;;19.08;61.54
23241;BME280;11789;53.482;9.862;2022-08-01T12:47:41;101770.81;;;19.10;61.57
23241;BME280;11789;53.482;9.862;2022-08-01T12:50:15;101765.56;;;19.11;61.43
23241;BME280;11789;53.482;9.862;2022-08-01T12:52:42;101759.37;;;19.14;61.76
23241;BME280;11789;53.482;9.862;2022-08-01T12:55:11;101754.19;;;19.11;61.93
23241;BME280;11789;53.482;9.862;2022-08-01T12:57:39;101766.56;;;19.04;61.92
23241;BME280;11789;53.482;9.862;2022-08-01T13:00:17;101769.25;;;19.03;62.82
23241;BME280;11789;53.482;9.862;2022-08-01T13:02:45;101766.66;;;19.01;61.73
23241;BME280;11789;53.482;9.862;2022-08-01T13:05:11;101764.66;;;19.12;62.92
23241;BME280;11789;53.482;9.862;2022-08-01T13:07:48;101768.09;;;19.16;62.03
23241;BME280;11789;53.482;9.862;2022-08-01T13:10:24;101785.59;;;19.14;60.81
23241;BME280;11789;53.482;9.862;2022-08-01T13:12:53;101766.38;;;19.13;60.01
23241;BME280;11789;53.482;9.862;2022-08-01T13:15:23;101773.34;;;19.16;60.03
23241;BME280;11789;53.482;9.862;2022-08-01T13:17:51;101765.47;;;19.16;61.75